Timeline UpdatesTrip UpdatesNews PostsPvt PostsTravel TipsAdmin PostsConv PostsFollowed PostsChat RequestsBlog PostsPNR Posts

Disclaimer
Search
 
 
Thu Aug 28, 2014 16:37:22 ISTHomeTrainsΣChainsAtlasPNRForumGalleryNewsFAQTripsMembersLoginFeedback
No Recent News for this Train
Other Trains in the News **new
Latest...
Diverted via Dankuni and will stop at Kamarkundu from 31/1/14-7/2/14 #979555
Thu Jan 30, 2014 (07:14PM)
⇐ Return Journey: Train# 53131

53132/Muzaffarpur Sealdah Passenger (UnReserved)

Sep 11 2013 (10:52PM)
Change Departure Station:
Change Arrival Station:
Post a Train Travel TipPost a Train Travel Tip **new
Post a Comment/Question/Picture/VideoPost a Comment/Question/Picture/Video
Pantry/Catering
✕ NO Pantry Car
✕ NO Catering
RSA - Rake Sharing
Rake/Coach Composition
ENG-SLR-GEN-GEN-GEN-GEN-GEN-GEN-GEN-SLR
Loco
WDM-2/WDM-3A from MFP to BJU, then, ASN WAM-4/WAG-5A/WAG-5HA from BJU...
Read more...
to SDAH
News    PNR    Forum    Time-Table    Availability    Fare Chart    Map    Arr/Dep History    Trips    Gallery    ΣChains    X/O    Timeline    
Travel Time: 5h 5m    16 halts    Distance: 213 km    Avg Speed: 41 km/hr
Type: Passenger
Zone: ER/Eastern
Departs @ 21:35 (Avg 1h 23m late)
Platform# ???
SMTWTFS
Asansol Junction/ASN 
Arrives @ 02:40 +1 night (Avg 46m late)
Platform# ???
SMTWTFS
Dum Dum Junction/DDJ 

16 halts. 52 intermediate Stations between Asansol Junction and Dum Dum Junction

Show ALL intermediate Stations  Show Old Time-Table

#CodeStation NameX/OArrivesAvgDepartsAvgHaltPFDay#KmSpeedElevZoneAddress
1MFPMuzaffarpur Junction (6)  -07:45+9--1-356.53257mECRMuzaffarpur, Bihar
2NRPANarayanpur Anant (3)X  07:54+1507:55+181m--1-351.74356mECRMuzaffarpur, Bihar
3SLTSilaut (2)  08:03+1808:04+211m--1-346.05857mECRMuzaffarpur, Bihar
4SIHOSiho (2)  08:12+2208:13+251m--1-338.25153mECRNational Highway 28, Bihar
5DOLDholi (2)X  08:21+2608:22+291m--1-331.440 ECRDistt. Muzaffarpur, Bihar
6DUBHDubaha (2)  08:31+3008:32+331m--1-325.34955mECRDubha Station, Bihar
7KRBPKhudiram B Pusa (2)  08:41+3608:42+371m--1-318.04952mECRDistt. Samastipur, Bihar
8KPGMKarpurigram (3)X  08:51+4208:52+491m--1-310.72151mECRState Highway 49, Bihar
9SPJSamastipur Junction (9)X  09:10+4709:20+4610m--1-304.44955mECRSamastipur, Bihar
10UJPUjiarpur (2)X  09:31+1:0209:32+1:051m--1-295.34751mECRSamastipur, Bihar
11NAZJNazirGanj (2)  09:40+1:0709:41+1:131m--1-289.14751mECRNazirGanj, Bihar
12DSSDalsingh Sarai (2)X  09:51+1:1509:52+1:231m21-281.227 ECR06278-221238, Bihar
13STJTSathajagat (2)  10:02+1:2310:03+1:321m--1-276.62449mECRSathajagat, Bihar
14BCABachwara Junction (3)  10:19+1:2810:20+1:471m--1-270.22449mECRBegusarai, Bihar
15TGATeghra (3)X  10:42+1:3810:43+1:491m--1-261.31048mECRBegusarai, Bihar
16BJUBarauni Junction (9)11:25+1:2211:50+1:3625m--1-253.92649mECRBegusarai, Bihar
17SAEDinkar Gram Simaria (3)  12:04+1:3712:05+1:381m--1-247.919228mECRBegusarai, Bihar
18RJORajendra Pul (1)  12:14+2:2812:15+2:411m11-245.02849mECRSimaria, Bihar
19HTZUHathidah Upper (1)  12:22+2:4312:24+2:402m11-241.71451mECRMurarpur, Bihar
20RDUMRampur Dumra (3)  13:14+2:0913:15+2:121m--1-229.93746mECRNational Highway 80, Bihar
21BRYABarhiya (3)  13:24+1:5813:25+2:001m--1-224.32047mECRBarahiya, Bihar
22MKBMankathaX  13:53+1:5613:55+1:582m--1-214.93347mECRNational Highway 80, Bihar
23LKRLuckeesarai Junction (2)X  14:05+1:5514:07+1:562m--1-209.3652mECRLakhisarai, Bihar
24KIULKiul Junction (5)  14:20+1:3114:30+1:3010m--1-207.93353mECRDist. Lakhisarai, Bihar
25BSQPBansipur  14:38+1:5614:40+1:562m--1-203.61753mECRKiul, Bihar
26MNPMananpur (2)  14:49+1:5614:50+1:571m--1-201.02257mECRState Highway 18, Bihar
27BFMBhaluiX  14:57+1:5914:58+2:001m--1-198.49756mECRState Highway 18, Bihar
28JMUJamui (3)  15:09+2:0515:10+2:061m--1-180.61581mECRState Highway 72, Bihar
29CUXChauraX  15:20+2:0815:21+2:091m--1-178.18079mECRState Highway 18, Bihar
30GHRGidhaur (2)  15:30+2:0815:31+2:151m--1-166.137106mECRState Highway 18, Bihar
31DPXDadpurX  15:38+2:1415:39+2:151m--1-161.820116mECRDadpur, Bihar
32JAJJhajha (4)  16:00+1:4916:10+1:5710m--1-154.644143mECRJhajha, Bihar
33NRGONarganjo Halt (2)X  16:21+2:1416:22+2:151m--1-146.629188mERState Highway 18, Bihar
34STLSimultala (2)X  16:44+2:0116:45+2:041m--1-135.947247mERSimultala, Bihar
35LHBLahabon (3)X  16:58+2:1116:59+2:131m--1-125.846259mERDeoghar, Jharkhand
36JSMEJasidih Junction (5)  17:19+1:5617:22+1:573m--1-110.555271mERJasidih, Jharkhand
37KBQKumrabad Rohini (2)X  17:29-17:30-1m--1-104.273231mERKumrabad Rohi, Jharkhand
38SNQSankarpur (2)X  17:34+2:3417:35+2:341m--1-99.341242mERDeoghar, Jharkhand
39MUWMathurapur (2)  17:44+2:3517:45+2:351m--1-93.144261mERDeoghar, Jharkhand
40MDPMadhupur Junction (4)XO  18:01+2:0018:58+1:2757m--1-81.559254mER06432-224478, Jharkhand
41JRWJoramow  19:08+1:4819:09+1:481m--1-71.646208mERBarrage on Ajoy River, Jharkhand
42MNCMadankata (2)X  19:16+1:4619:17+1:471m--1-66.244208mERBarrage on Ajoy River, Jharkhand
43VDSVidyasagar (2)X  19:29+1:4519:30+1:461m--1-57.363250mERJamtara, Jharkhand
44JMTJamtara (2)  19:47+1:4019:48+1:411m21-39.445201mERJamtara, Jharkhand
45CRJChittaranjan (3)X  20:07+1:4020:10+1:433m21-25.146182mERMihijam, Jharkhand
46RNPRRupnarayanpur (3)X  20:16+1:5120:17+1:521m--1-20.553191mERChittaranjan, West Bengal
47SLSSalanpur (2)X  20:25+1:5420:26+1:551m--1-13.49156mERSalanpur Station, West Bengal
48STNSitarampur Junction (5)X  20:58+1:3021:00+1:342m--1-8.837139mERG T Rd Before Asansol, West Bengal
49BCQBarachak Junction (4)X  21:06+1:5021:07+1:501m--1-5.138127mERdist - bardhaman, West Bengal
50ASN»Asansol Junction (7)»X  21:15+1:2421:35+1:2320m--10.064113mERDist - bardhaman, West Bengal
51RNGRaniGanj (4)XO  21:52+1:3421:56+1:374m--118.11392mERRaniganj, West Bengal
52UDLAndal Junction (6)  22:30+1:1222:33+1:113m--125.46286mERAndal, West Bengal
53OYRWaria (4)X  22:41+1:3122:42+1:321m--133.64172mERDurgapur, West Bengal
54DGRDurgapur (5)X  22:55+1:1323:00+1:135m--142.45571mERDurgapur, West Bengal
55PANPanagarh (4)X  23:17+1:1823:18+1:191m--158.16570mERKaksa, West Bengal
56KANKhana Junction (5)X  23:50+1:2223:51+1:231m--192.96542mERDist - Bardhaman, West Bengal
57BWNBarddhaman Junction (8)X  00:03+1:3500:08+1:395m--2106.07034mERDist - Barddhaman, West Bengal
58BDCBandel Junction (7)  01:06+2:0201:11+2:025m--2173.23314mERdist - HOOGHLY, West Bengal
59HYGHooghly Ghat (2)  01:18+2:1301:19+2:131m--2177.01417mERdist - Hooghly, West Bengal
60GFAEGarifa (2)  01:25-01:26-1m--2178.51915mERState Highway 1, West Bengal
61NHNaihati Junction (5)  01:36+1:5001:44+1:468m--2181.63415mERdist - North 24 paraganas - 743165, West Bengal
62KNRKankinara (3)  01:49-01:51-2m--2184.557 ERState Highway 1, West Bengal
63SNRShyamnagar (4)  01:56+5201:57+521m--2189.24916mERDist - North 24 paraganas, West Bengal
64IPIchhapur (4)  02:01+1:3702:02+1:371m--2192.54412mERIchapur, West Bengal
65BPBarrackpore (5)  02:08+1:3202:16+1:278m22196.93212mERDist - 24 paraganas (N), West Bengal
66TGHTitagarh (4)  02:20+1:1102:22+1:102m42199.14510mERDist - 24 paraganas ( north ), West Bengal
67DDJ•Dum Dum Junction (5)•  02:40+4602:41+461m--2212.6910mERKolkata - 700028, West Bengal
68SDAHKolkata Sealdah (20)  03:25+1:06-72219.2-8mERPh : 033-23503535 (For North: APC Roy Road) Kolkata 700014, West Bengal
Scroll to Top
Scroll to Bottom